createdAt,value
2023-01-29T00:01:28.043Z,11.00
2023-01-29T00:04:23.796Z,11.00
2023-01-29T00:07:39.255Z,11.80
2023-01-29T00:09:23.702Z,11.80
2023-01-29T00:12:19.924Z,12.00
2023-01-29T00:13:08.746Z,12.00
2023-01-29T00:14:25.323Z,12.00
2023-01-29T00:14:50.463Z,12.00
2023-01-29T00:16:18.726Z,12.60
2023-01-29T00:19:23.708Z,12.60
2023-01-29T00:21:50.613Z,10.50
2023-01-29T00:24:26.635Z,10.50
2023-01-29T00:27:14.690Z,10.90
2023-01-29T00:29:23.621Z,10.90
2023-01-29T00:33:12.471Z,11.10
2023-01-29T00:34:23.622Z,11.10
2023-01-29T00:38:57.612Z,11.50
2023-01-29T00:39:29.374Z,11.50
2023-01-29T00:41:15.760Z,17.40
2023-01-29T00:44:33.559Z,17.40
2023-01-29T00:49:23.895Z,43.60
2023-01-29T00:54:23.685Z,43.80
2023-01-29T00:59:23.583Z,16.60
2023-01-29T01:01:09.788Z,11.50
2023-01-29T01:04:23.523Z,11.50
2023-01-29T01:06:02.423Z,10.70
2023-01-29T01:08:53.548Z,10.70
2023-01-29T01:09:33.541Z,10.70
2023-01-29T01:14:13.318Z,11.70
2023-01-29T01:14:23.416Z,11.70
2023-01-29T01:19:23.777Z,10.40
2023-01-29T01:24:23.631Z,12.30
2023-01-29T01:26:20.339Z,11.30
2023-01-29T01:29:14.598Z,11.30
2023-01-29T01:29:23.699Z,11.30
2023-01-29T01:33:25.324Z,12.70
2023-01-29T01:34:26.068Z,12.70
2023-01-29T01:39:24.327Z,12.60
2023-01-29T01:44:45.404Z,10.90
2023-01-29T01:49:23.821Z,11.30
2023-01-29T01:52:23.420Z,13.00
2023-01-29T01:54:27.989Z,13.00
2023-01-29T01:59:23.528Z,12.80
2023-01-29T02:04:35.659Z,11.60
2023-01-29T02:07:04.543Z,10.00
2023-01-29T02:09:33.467Z,10.00
2023-01-29T02:11:55.419Z,14.40
2023-01-29T02:14:24.346Z,14.40
2023-01-29T02:19:35.567Z,11.00
2023-01-29T02:20:43.213Z,13.70
2023-01-29T02:24:43.536Z,13.70
2023-01-29T02:26:44.864Z,9.90
2023-01-29T02:29:34.364Z,9.90
2023-01-29T02:34:12.355Z,11.00
2023-01-29T02:34:43.157Z,13.20
2023-01-29T02:39:33.202Z,13.20
2023-01-29T02:41:25.039Z,12.80
2023-01-29T02:43:23.383Z,12.80
2023-01-29T02:44:31.923Z,12.80
2023-01-29T02:49:31.377Z,13.50
2023-01-29T02:54:29.691Z,13.40
2023-01-29T02:56:35.937Z,13.40
2023-01-29T02:59:28.872Z,14.30
2023-01-29T03:04:28.492Z,13.60
2023-01-29T03:09:27.349Z,13.20
2023-01-29T03:13:20.787Z,13.20
2023-01-29T03:14:40.550Z,13.40
2023-01-29T03:19:35.401Z,14.30
2023-01-29T03:24:41.521Z,13.10
2023-01-29T03:24:56.376Z,13.10
2023-01-29T03:27:47.189Z,13.10
2023-01-29T03:29:33.906Z,15.00
2023-01-29T03:34:33.909Z,12.50
2023-01-29T03:39:27.371Z,13.70
2023-01-29T03:44:32.624Z,12.60
2023-01-29T03:46:28.209Z,12.60
2023-01-29T03:49:38.252Z,12.70
2023-01-29T03:54:31.050Z,13.40
2023-01-29T03:59:34.924Z,17.00
2023-01-29T04:04:26.543Z,13.80
2023-01-29T04:09:29.883Z,15.00
2023-01-29T04:14:24.520Z,15.30
2023-01-29T04:15:25.291Z,15.30
2023-01-29T04:19:24.240Z,15.40
2023-01-29T04:20:58.877Z,15.40
2023-01-29T04:24:23.410Z,12.60
2023-01-29T04:29:37.200Z,14.50
2023-01-29T04:34:28.158Z,13.80
2023-01-29T04:39:29.747Z,13.10
2023-01-29T04:44:32.773Z,13.60
2023-01-29T04:46:18.156Z,13.60
2023-01-29T04:49:31.630Z,13.60
2023-01-29T04:49:46.076Z,13.60
2023-01-29T04:54:31.403Z,12.90
2023-01-29T04:59:30.169Z,11.60
2023-01-29T05:04:26.126Z,12.20
2023-01-29T05:09:24.909Z,13.20
2023-01-29T05:09:37.281Z,13.20
2023-01-29T05:14:07.995Z,11.30
2023-01-29T05:14:25.106Z,11.30
2023-01-29T05:19:23.408Z,15.80
2023-01-29T05:20:34.205Z,15.80
2023-01-29T05:24:25.468Z,12.40
2023-01-29T05:29:23.965Z,16.30
2023-01-29T05:31:59.854Z,16.30
2023-01-29T05:34:23.291Z,16.00
2023-01-29T05:39:23.405Z,15.10
2023-01-29T05:44:23.612Z,13.80
2023-01-29T05:49:23.347Z,13.90
2023-01-29T05:54:23.313Z,14.90
2023-01-29T05:59:23.706Z,14.70
2023-01-29T06:04:23.516Z,12.70
2023-01-29T06:09:23.576Z,15.10
2023-01-29T06:14:23.471Z,15.30
2023-01-29T06:15:14.495Z,15.30
2023-01-29T06:19:23.228Z,15.90
2023-01-29T06:21:27.423Z,15.90
2023-01-29T06:24:23.391Z,15.60
2023-01-29T06:27:49.556Z,18.40
2023-01-29T06:29:23.249Z,18.40
2023-01-29T06:29:29.263Z,18.40
2023-01-29T06:34:23.325Z,16.50
2023-01-29T06:39:23.646Z,16.20
2023-01-29T06:42:42.100Z,16.60
2023-01-29T06:44:23.232Z,16.60
2023-01-29T06:49:23.373Z,16.00
2023-01-29T06:52:35.214Z,16.10
2023-01-29T06:54:23.224Z,16.10
2023-01-29T06:54:45.173Z,16.10
2023-01-29T06:59:23.429Z,15.40
2023-01-29T07:04:23.427Z,18.80
2023-01-29T07:09:23.340Z,17.40
2023-01-29T07:10:32.168Z,17.40
2023-01-29T07:14:23.183Z,14.90
2023-01-29T07:19:23.509Z,17.00
2023-01-29T07:24:18.157Z,18.20
2023-01-29T07:24:23.775Z,18.20
2023-01-29T07:25:49.376Z,18.20
2023-01-29T07:29:23.315Z,17.50
2023-01-29T07:34:23.633Z,18.20
2023-01-29T07:39:23.286Z,18.40
2023-01-29T07:44:23.538Z,17.40
2023-01-29T07:46:18.272Z,17.40
2023-01-29T07:49:23.221Z,17.80
2023-01-29T07:54:23.416Z,20.70
2023-01-29T07:57:55.237Z,16.60
2023-01-29T07:59:23.351Z,16.60
2023-01-29T08:04:23.343Z,17.60
2023-01-29T08:06:54.866Z,19.10
2023-01-29T08:09:23.564Z,19.10
2023-01-29T08:14:23.196Z,16.70
2023-01-29T08:19:23.354Z,17.20
2023-01-29T08:23:23.324Z,16.30
2023-01-29T08:24:28.229Z,16.30
2023-01-29T08:26:10.029Z,16.30
2023-01-29T08:29:23.233Z,17.90
2023-01-29T08:29:49.096Z,17.90
2023-01-29T08:34:23.780Z,16.50
2023-01-29T08:39:23.294Z,17.00
2023-01-29T08:44:23.299Z,17.10
2023-01-29T08:49:23.708Z,14.20
2023-01-29T08:51:19.004Z,14.20
2023-01-29T08:54:23.319Z,15.90
2023-01-29T08:59:23.350Z,14.50
2023-01-29T09:04:23.753Z,14.50
2023-01-29T09:09:23.398Z,15.10
2023-01-29T09:14:23.179Z,14.00
2023-01-29T09:19:23.709Z,17.90
2023-01-29T09:19:24.237Z,17.90
2023-01-29T09:21:26.908Z,15.80
2023-01-29T09:24:23.079Z,15.80
2023-01-29T09:25:28.970Z,15.80
2023-01-29T09:29:23.074Z,15.50
2023-01-29T09:33:53.945Z,17.40
2023-01-29T09:34:24.867Z,17.40
2023-01-29T09:39:23.170Z,18.90
2023-01-29T09:40:34.549Z,18.90
2023-01-29T09:44:31.613Z,15.80
2023-01-29T09:49:28.454Z,16.40
2023-01-29T09:54:26.385Z,17.70
2023-01-29T09:59:26.370Z,22.30
2023-01-29T10:02:03.617Z,16.00
2023-01-29T10:04:42.999Z,16.00
2023-01-29T10:08:35.535Z,15.40
2023-01-29T10:09:40.882Z,15.40
2023-01-29T10:14:36.791Z,17.10
2023-01-29T10:19:42.262Z,16.10
2023-01-29T10:20:13.882Z,16.10
2023-01-29T10:24:34.518Z,18.00
2023-01-29T10:25:12.878Z,18.00
2023-01-29T10:29:25.777Z,17.70
2023-01-29T10:34:28.290Z,18.80
2023-01-29T10:39:25.506Z,18.90
2023-01-29T10:44:39.951Z,17.30
2023-01-29T10:47:30.276Z,18.20
2023-01-29T10:49:36.712Z,18.20
2023-01-29T10:54:35.248Z,17.00
2023-01-29T10:57:33.999Z,20.40
2023-01-29T10:59:36.520Z,20.40
2023-01-29T11:04:24.715Z,19.50
2023-01-29T11:14:29.140Z,17.80
2023-01-29T11:19:36.191Z,19.20
2023-01-29T11:22:26.906Z,18.80
2023-01-29T11:24:23.837Z,18.80
2023-01-29T11:26:46.267Z,19.30
2023-01-29T11:29:32.042Z,19.30
2023-01-29T11:34:26.661Z,21.00
2023-01-29T11:39:24.943Z,18.40
2023-01-29T11:44:28.514Z,16.90
2023-01-29T11:49:33.841Z,20.10
2023-01-29T11:49:51.769Z,20.10
2023-01-29T11:54:28.596Z,18.10
2023-01-29T11:56:41.565Z,19.80
2023-01-29T11:59:30.560Z,19.80
2023-01-29T12:04:25.412Z,20.80
2023-01-29T12:09:27.267Z,21.00
2023-01-29T12:14:28.183Z,18.60
2023-01-29T12:19:29.760Z,19.10
2023-01-29T12:22:47.851Z,19.20
2023-01-29T12:24:31.352Z,19.20
2023-01-29T12:29:32.471Z,18.90
2023-01-29T12:31:35.612Z,21.30
2023-01-29T12:34:28.665Z,21.30
2023-01-29T12:39:23.360Z,21.40
2023-01-29T12:42:40.598Z,22.90
2023-01-29T12:44:29.349Z,22.90
2023-01-29T12:49:26.968Z,18.30
2023-01-29T12:54:30.183Z,20.80
2023-01-29T12:58:23.313Z,20.80
2023-01-29T12:59:29.211Z,20.80
2023-01-29T13:01:15.975Z,19.10
2023-01-29T13:03:07.297Z,19.10
2023-01-29T13:04:31.271Z,22.10
2023-01-29T13:06:18.001Z,22.10
2023-01-29T13:09:28.875Z,23.60
2023-01-29T13:14:27.847Z,23.10
2023-01-29T13:15:38.629Z,23.10
2023-01-29T13:18:40.466Z,23.10
2023-01-29T13:19:27.779Z,24.00
2023-01-29T13:24:25.160Z,27.70
2023-01-29T13:29:30.744Z,25.50
2023-01-29T13:32:00.020Z,25.50
2023-01-29T13:34:27.449Z,26.10
2023-01-29T13:37:57.994Z,26.10
2023-01-29T13:39:26.518Z,24.70
2023-01-29T13:40:20.169Z,24.70
2023-01-29T13:42:53.157Z,24.70
2023-01-29T13:44:26.100Z,23.30
2023-01-29T13:49:27.159Z,25.00
2023-01-29T13:53:36.952Z,25.00
2023-01-29T13:54:25.988Z,25.70
2023-01-29T13:59:33.996Z,24.40
2023-01-29T14:04:25.779Z,24.80
2023-01-29T14:09:31.935Z,27.40
2023-01-29T14:12:35.421Z,27.40
2023-01-29T14:14:42.864Z,28.30
2023-01-29T14:19:23.478Z,31.10
2023-01-29T14:24:29.919Z,30.10
2023-01-29T14:26:48.819Z,30.10
2023-01-29T14:29:34.277Z,33.20
2023-01-29T14:30:05.417Z,33.20
2023-01-29T14:34:28.437Z,34.70
2023-01-29T14:37:58.717Z,34.70
2023-01-29T14:39:32.059Z,34.90
2023-01-29T14:42:23.793Z,34.90
2023-01-29T14:44:42.718Z,37.90
2023-01-29T14:45:27.396Z,37.90
2023-01-29T14:48:56.468Z,34.60
2023-01-29T14:49:47.248Z,34.60
2023-01-29T14:54:01.739Z,36.10
2023-01-29T14:54:27.309Z,36.10
2023-01-29T14:59:28.123Z,34.40
2023-01-29T15:00:20.489Z,34.40
2023-01-29T15:02:44.235Z,34.40
2023-01-29T15:03:18.011Z,34.40
2023-01-29T15:04:26.576Z,34.70
2023-01-29T15:14:28.215Z,36.80
2023-01-29T15:17:05.028Z,36.80
2023-01-29T15:19:28.621Z,32.80
2023-01-29T15:24:22.918Z,37.50
2023-01-29T15:27:22.803Z,37.50
2023-01-29T15:29:26.069Z,35.70
2023-01-29T15:34:23.167Z,34.10
2023-01-29T15:39:24.271Z,33.40
2023-01-29T15:40:14.583Z,33.40
2023-01-29T15:42:48.752Z,33.40
2023-01-29T15:44:22.988Z,29.20
2023-01-29T15:48:28.720Z,32.20
2023-01-29T15:49:28.691Z,32.20
2023-01-29T15:54:23.894Z,31.60
2023-01-29T15:59:25.412Z,27.40
2023-01-29T16:01:37.820Z,27.40
2023-01-29T16:04:27.825Z,26.50
2023-01-29T16:04:42.140Z,26.50
2023-01-29T16:07:56.992Z,25.10
2023-01-29T16:09:25.489Z,25.10
2023-01-29T16:09:39.257Z,25.10
2023-01-29T16:13:18.976Z,30.50
2023-01-29T16:14:24.663Z,30.50
2023-01-29T16:19:25.536Z,28.60
2023-01-29T16:23:30.311Z,32.40
2023-01-29T16:24:23.991Z,32.40
2023-01-29T16:29:27.842Z,34.30
2023-01-29T16:34:25.766Z,37.40
2023-01-29T16:39:26.267Z,44.70
2023-01-29T16:41:35.666Z,44.70
2023-01-29T16:44:32.282Z,37.90
2023-01-29T16:49:42.580Z,37.20
2023-01-29T16:49:52.579Z,37.20
2023-01-29T16:49:54.899Z,37.20
2023-01-29T16:52:15.423Z,37.20
2023-01-29T16:54:24.480Z,43.20
2023-01-29T16:59:31.267Z,43.80
2023-01-29T17:04:23.190Z,39.40
2023-01-29T17:09:26.927Z,40.40
2023-01-29T17:14:24.908Z,42.70
2023-01-29T17:19:24.441Z,47.90
2023-01-29T17:21:45.765Z,47.90
2023-01-29T17:24:22.923Z,43.60
2023-01-29T17:29:28.064Z,42.70
2023-01-29T17:32:57.652Z,45.70
2023-01-29T17:34:23.133Z,45.70
2023-01-29T17:34:30.457Z,45.70
2023-01-29T17:39:24.736Z,41.20
2023-01-29T17:44:25.291Z,41.50
2023-01-29T17:49:24.774Z,39.70
2023-01-29T17:51:23.406Z,39.70
2023-01-29T17:54:24.615Z,39.70
2023-01-29T17:59:22.528Z,43.30
2023-01-29T17:59:27.465Z,43.30
2023-01-29T18:04:22.823Z,42.60
2023-01-29T18:09:23.694Z,39.90
2023-01-29T18:11:53.018Z,41.60
2023-01-29T18:13:54.208Z,41.60
2023-01-29T18:14:22.816Z,41.60
2023-01-29T18:19:26.375Z,38.80
2023-01-29T18:24:25.422Z,41.00
2023-01-29T18:29:28.454Z,37.40
2023-01-29T18:30:53.871Z,37.40
2023-01-29T18:34:22.658Z,37.80
2023-01-29T18:39:22.794Z,39.10
2023-01-29T18:44:22.671Z,43.00
2023-01-29T18:49:22.654Z,39.90
2023-01-29T18:54:23.086Z,39.90
2023-01-29T18:58:29.008Z,36.90
2023-01-29T18:59:05.593Z,36.90
2023-01-29T18:59:22.612Z,36.90
2023-01-29T19:04:22.718Z,38.50
2023-01-29T19:09:22.904Z,36.90
2023-01-29T19:14:22.602Z,41.70
2023-01-29T19:19:22.872Z,38.50
2023-01-29T19:24:23.367Z,43.80
2023-01-29T19:29:22.686Z,41.70
2023-01-29T19:31:33.894Z,50.60
2023-01-29T19:33:11.700Z,50.60
2023-01-29T19:34:23.145Z,50.60
2023-01-29T19:34:29.185Z,50.60
2023-01-29T19:39:22.862Z,43.40
2023-01-29T19:44:22.548Z,41.40
2023-01-29T19:45:49.856Z,41.40
2023-01-29T19:49:22.604Z,43.70
2023-01-29T19:51:09.302Z,41.20
2023-01-29T19:54:22.510Z,41.20
2023-01-29T19:55:03.349Z,41.20
2023-01-29T19:59:22.871Z,44.60
2023-01-29T20:04:22.828Z,43.40
2023-01-29T20:09:22.614Z,49.90
2023-01-29T20:14:22.547Z,47.90
2023-01-29T20:19:22.658Z,46.10
2023-01-29T20:22:28.840Z,46.00
2023-01-29T20:24:23.327Z,46.00
2023-01-29T20:26:47.737Z,46.00
2023-01-29T20:29:22.609Z,46.00
2023-01-29T20:34:24.646Z,43.70
2023-01-29T20:39:22.880Z,44.70
2023-01-29T20:44:22.762Z,48.10
2023-01-29T20:49:22.892Z,44.80
2023-01-29T20:54:22.740Z,47.90
2023-01-29T20:59:23.318Z,44.90
2023-01-29T21:04:22.778Z,37.20
2023-01-29T21:09:22.991Z,40.80
2023-01-29T21:14:22.649Z,34.00
2023-01-29T21:19:23.179Z,39.40
2023-01-29T21:24:22.532Z,36.60
2023-01-29T21:29:22.567Z,34.40
2023-01-29T21:34:23.103Z,34.20
2023-01-29T21:35:25.199Z,36.80
2023-01-29T21:39:23.818Z,36.80
2023-01-29T21:44:22.452Z,33.40
2023-01-29T21:49:23.481Z,35.80
2023-01-29T21:51:33.235Z,36.00
2023-01-29T21:54:22.489Z,36.00
2023-01-29T21:59:03.554Z,34.10
2023-01-29T21:59:23.077Z,34.10
2023-01-29T22:04:22.875Z,33.40
2023-01-29T22:09:22.510Z,35.30
2023-01-29T22:14:22.494Z,35.80
2023-01-29T22:19:24.240Z,38.50
2023-01-29T22:24:22.620Z,40.50
2023-01-29T22:29:22.627Z,37.70
2023-01-29T22:34:22.941Z,37.60
2023-01-29T22:38:34.390Z,35.20
2023-01-29T22:39:24.915Z,35.20
2023-01-29T22:41:18.416Z,38.40
2023-01-29T22:44:22.409Z,38.40
2023-01-29T22:47:50.655Z,36.40
2023-01-29T22:49:24.183Z,36.40
2023-01-29T22:50:52.687Z,36.30
2023-01-29T22:53:21.566Z,36.30
2023-01-29T22:54:22.380Z,36.30
2023-01-29T22:54:35.635Z,36.90
2023-01-29T22:59:22.721Z,36.90
2023-01-29T23:04:22.584Z,38.70
2023-01-29T23:09:22.870Z,35.10
2023-01-29T23:09:45.477Z,34.90
2023-01-29T23:12:07.135Z,34.90
2023-01-29T23:14:22.921Z,37.10
2023-01-29T23:16:43.749Z,37.10
2023-01-29T23:19:22.479Z,37.40
2023-01-29T23:24:22.836Z,37.60
2023-01-29T23:29:22.420Z,35.90
2023-01-29T23:34:22.555Z,35.00
2023-01-29T23:38:57.699Z,35.00
2023-01-29T23:39:22.622Z,34.60
2023-01-29T23:40:57.166Z,34.60
2023-01-29T23:44:22.570Z,34.80
2023-01-29T23:49:22.809Z,33.10
2023-01-29T23:54:22.493Z,31.50
2023-01-29T23:59:22.369Z,29.50
